SWR433 LIRQ-LSZR
Flight info
| Callsign | SWR433 |
|---|---|
| Flight time | 0h 51m |
| Altitude | 36000 |
| Route | BIBNO DCT OSBUL DCT PEPAG DCT ABESI DCT UTAVO DCT SOPER N851 ROLSA |
| Aircraft | A319/M-SDE3FGHIRWY/LB1 |
Departure
| Time | 2026-04-22 13:33 |
|---|---|
| Airport | Florence Airport, Peretola (LIRQ) |
Arrival
| Time | 2026-04-22 14:25 |
|---|---|
| Airport | Sankt Gallen Altenrhein Airport (LSZR) |
| Time | Latitude | Longitude | Altitude | Speed | Heading |
|---|---|---|---|---|---|
| 2026-04-22 13:27 | 43.80348 | 11.19889 | 130 ft | 0 kts | 24° |
| 2026-04-22 13:29 | 43.80351 | 11.19890 | 130 ft | 2 kts | 24° |
| 2026-04-22 13:29 | 43.80370 | 11.19902 | 126 ft | 6 kts | 24° |
| 2026-04-22 13:29 | 43.80419 | 11.19878 | 128 ft | 10 kts | 320° |
| 2026-04-22 13:29 | 43.80479 | 11.19799 | 124 ft | 13 kts | 291° |
| 2026-04-22 13:30 | 43.80486 | 11.19705 | 120 ft | 4 kts | 347° |
| 2026-04-22 13:30 | 43.80492 | 11.19718 | 121 ft | 0 kts | 49° |
| 2026-04-22 13:32 | 43.80654 | 11.19969 | 131 ft | 73 kts | 48° |
| 2026-04-22 13:32 | 43.81142 | 11.20721 | 145 ft | 134 kts | 48° |
| 2026-04-22 13:33 | 43.81813 | 11.21746 | 632 ft | 145 kts | 50° |
| 2026-04-22 13:33 | 43.82627 | 11.22470 | 1465 ft | 139 kts | 15° |
| 2026-04-22 13:33 | 43.83550 | 11.22364 | 2262 ft | 134 kts | 351° |
| 2026-04-22 13:33 | 43.84344 | 11.21659 | 2811 ft | 144 kts | 321° |
| 2026-04-22 13:34 | 43.84747 | 11.20321 | 3284 ft | 160 kts | 278° |
| 2026-04-22 13:34 | 43.84476 | 11.18764 | 3676 ft | 177 kts | 240° |
| 2026-04-22 13:34 | 43.83866 | 11.17311 | 4300 ft | 174 kts | 243° |
| 2026-04-22 13:34 | 43.83276 | 11.15861 | 4896 ft | 174 kts | 244° |
| 2026-04-22 13:35 | 43.82691 | 11.14412 | 5504 ft | 172 kts | 245° |
| 2026-04-22 13:35 | 43.82113 | 11.12974 | 6127 ft | 170 kts | 244° |
| 2026-04-22 13:35 | 43.81540 | 11.11544 | 6693 ft | 170 kts | 245° |
| 2026-04-22 13:35 | 43.81108 | 11.10077 | 7214 ft | 165 kts | 265° |
| 2026-04-22 13:36 | 43.81105 | 11.08506 | 7742 ft | 167 kts | 275° |
| 2026-04-22 13:36 | 43.81135 | 11.06795 | 8007 ft | 188 kts | 275° |
| 2026-04-22 13:36 | 43.81170 | 11.04848 | 8218 ft | 215 kts | 275° |
| 2026-04-22 13:36 | 43.81311 | 11.02719 | 8595 ft | 233 kts | 289° |
| 2026-04-22 13:37 | 43.82104 | 11.00691 | 9001 ft | 251 kts | 316° |
| 2026-04-22 13:37 | 43.83495 | 10.99084 | 9568 ft | 268 kts | 323° |
| 2026-04-22 13:37 | 43.85502 | 10.96953 | 10480 ft | 284 kts | 323° |
| 2026-04-22 13:37 | 43.86598 | 10.95800 | 10703 ft | 300 kts | 323° |
| 2026-04-22 13:38 | 43.88314 | 10.93998 | 11160 ft | 316 kts | 323° |
| 2026-04-22 13:38 | 43.91846 | 10.90264 | 12846 ft | 322 kts | 323° |
| 2026-04-22 13:38 | 43.93631 | 10.88363 | 13663 ft | 326 kts | 323° |
| 2026-04-22 13:39 | 43.95443 | 10.86429 | 14387 ft | 330 kts | 323° |
| 2026-04-22 13:39 | 43.97249 | 10.84501 | 15116 ft | 332 kts | 322° |
| 2026-04-22 13:39 | 43.99079 | 10.82550 | 15919 ft | 332 kts | 322° |
| 2026-04-22 13:39 | 44.00914 | 10.80595 | 16717 ft | 331 kts | 322° |
| 2026-04-22 13:40 | 44.02747 | 10.78642 | 17538 ft | 331 kts | 321° |
| 2026-04-22 13:40 | 44.04558 | 10.76706 | 18358 ft | 332 kts | 321° |
| 2026-04-22 13:40 | 44.06390 | 10.74745 | 19040 ft | 331 kts | 321° |
| 2026-04-22 13:40 | 44.08220 | 10.72789 | 19653 ft | 331 kts | 321° |
| 2026-04-22 13:41 | 44.10053 | 10.70829 | 20272 ft | 333 kts | 320° |
| 2026-04-22 13:41 | 44.11889 | 10.68861 | 20947 ft | 334 kts | 320° |
| 2026-04-22 13:41 | 44.13726 | 10.66887 | 21526 ft | 337 kts | 320° |
| 2026-04-22 13:41 | 44.15593 | 10.64885 | 22198 ft | 338 kts | 320° |
| 2026-04-22 13:42 | 44.17580 | 10.63169 | 22817 ft | 341 kts | 328° |
| 2026-04-22 13:42 | 44.19798 | 10.61874 | 23435 ft | 347 kts | 333° |
| 2026-04-22 13:42 | 44.22071 | 10.60716 | 23979 ft | 348 kts | 333° |
| 2026-04-22 13:42 | 44.24349 | 10.59543 | 24413 ft | 349 kts | 333° |
| 2026-04-22 13:43 | 44.26642 | 10.58356 | 24889 ft | 351 kts | 333° |
| 2026-04-22 13:43 | 44.28916 | 10.57177 | 25303 ft | 353 kts | 333° |
| 2026-04-22 13:43 | 44.31234 | 10.55971 | 25654 ft | 357 kts | 333° |
| 2026-04-22 13:43 | 44.33587 | 10.54749 | 26085 ft | 360 kts | 333° |
| 2026-04-22 13:44 | 44.35914 | 10.53542 | 26534 ft | 362 kts | 333° |
| 2026-04-22 13:44 | 44.38290 | 10.52310 | 26972 ft | 364 kts | 333° |
| 2026-04-22 13:44 | 44.40685 | 10.51069 | 27402 ft | 366 kts | 333° |
| 2026-04-22 13:44 | 44.43078 | 10.49828 | 27841 ft | 368 kts | 333° |
| 2026-04-22 13:45 | 44.45463 | 10.48586 | 28245 ft | 371 kts | 332° |
| 2026-04-22 13:45 | 44.47890 | 10.47322 | 28622 ft | 373 kts | 332° |
| 2026-04-22 13:45 | 44.50317 | 10.46057 | 29007 ft | 375 kts | 332° |
| 2026-04-22 13:45 | 44.52798 | 10.44766 | 29432 ft | 377 kts | 332° |
| 2026-04-22 13:46 | 44.55228 | 10.43502 | 29873 ft | 378 kts | 332° |
| 2026-04-22 13:46 | 44.57712 | 10.42208 | 30242 ft | 379 kts | 332° |
| 2026-04-22 13:46 | 44.60188 | 10.40912 | 30554 ft | 381 kts | 332° |
| 2026-04-22 13:46 | 44.62681 | 10.39605 | 30859 ft | 382 kts | 332° |
| 2026-04-22 13:47 | 44.65154 | 10.38308 | 31217 ft | 382 kts | 332° |
| 2026-04-22 13:47 | 44.67646 | 10.37004 | 31645 ft | 381 kts | 333° |
| 2026-04-22 13:47 | 44.70138 | 10.35698 | 32083 ft | 379 kts | 333° |
| 2026-04-22 13:47 | 44.72578 | 10.34416 | 32552 ft | 377 kts | 333° |
| 2026-04-22 13:48 | 44.75033 | 10.33127 | 33023 ft | 375 kts | 333° |
| 2026-04-22 13:48 | 44.77473 | 10.31847 | 33475 ft | 373 kts | 333° |
| 2026-04-22 13:48 | 44.79904 | 10.30566 | 33912 ft | 372 kts | 333° |
| 2026-04-22 13:48 | 44.82229 | 10.29104 | 34257 ft | 366 kts | 326° |
| 2026-04-22 13:49 | 44.84361 | 10.27162 | 34527 ft | 364 kts | 320° |
| 2026-04-22 13:49 | 44.86422 | 10.25032 | 34784 ft | 366 kts | 321° |
| 2026-04-22 13:49 | 44.88490 | 10.22905 | 35033 ft | 369 kts | 321° |
| 2026-04-22 13:49 | 44.90570 | 10.20768 | 35273 ft | 370 kts | 321° |
| 2026-04-22 13:50 | 44.92637 | 10.18641 | 35501 ft | 372 kts | 321° |
| 2026-04-22 13:50 | 44.94742 | 10.16475 | 35740 ft | 375 kts | 321° |
| 2026-04-22 13:50 | 44.96860 | 10.14292 | 35946 ft | 377 kts | 321° |
| 2026-04-22 13:50 | 44.98962 | 10.12126 | 36118 ft | 379 kts | 322° |
| 2026-04-22 13:51 | 45.03228 | 10.07720 | 36171 ft | 379 kts | 321° |
| 2026-04-22 13:51 | 45.07494 | 10.03288 | 36174 ft | 379 kts | 321° |
| 2026-04-22 13:52 | 45.11735 | 9.98897 | 36172 ft | 380 kts | 321° |
| 2026-04-22 13:52 | 45.16002 | 9.94476 | 36176 ft | 381 kts | 322° |
| 2026-04-22 13:53 | 45.20271 | 9.90027 | 36171 ft | 382 kts | 322° |
| 2026-04-22 13:53 | 45.24562 | 9.85543 | 36167 ft | 382 kts | 322° |
| 2026-04-22 13:54 | 45.28841 | 9.81063 | 36172 ft | 382 kts | 322° |
| 2026-04-22 13:54 | 45.33097 | 9.76603 | 36171 ft | 382 kts | 322° |
| 2026-04-22 13:55 | 45.37385 | 9.72111 | 36166 ft | 382 kts | 322° |
| 2026-04-22 13:55 | 45.41654 | 9.67626 | 36156 ft | 383 kts | 322° |
| 2026-04-22 13:56 | 45.45957 | 9.63095 | 36154 ft | 383 kts | 322° |
| 2026-04-22 13:56 | 45.50235 | 9.58586 | 36161 ft | 383 kts | 322° |
| 2026-04-22 13:57 | 45.54511 | 9.54055 | 36155 ft | 383 kts | 322° |
| 2026-04-22 13:57 | 45.58784 | 9.49522 | 36173 ft | 384 kts | 322° |
| 2026-04-22 13:58 | 45.63076 | 9.44965 | 36165 ft | 385 kts | 322° |
| 2026-04-22 13:58 | 45.67394 | 9.40374 | 36134 ft | 386 kts | 322° |
| 2026-04-22 13:59 | 45.71688 | 9.35810 | 36145 ft | 386 kts | 322° |
| 2026-04-22 13:59 | 45.75969 | 9.31235 | 36151 ft | 386 kts | 322° |
| 2026-04-22 14:00 | 45.80283 | 9.26618 | 36169 ft | 386 kts | 322° |
| 2026-04-22 14:00 | 45.84600 | 9.21993 | 36153 ft | 387 kts | 322° |
| 2026-04-22 14:01 | 45.88894 | 9.17381 | 36146 ft | 388 kts | 322° |
| 2026-04-22 14:01 | 45.93228 | 9.12706 | 36140 ft | 388 kts | 322° |
| 2026-04-22 14:02 | 45.97685 | 9.08418 | 36115 ft | 390 kts | 332° |
| 2026-04-22 14:02 | 46.02972 | 9.06381 | 36141 ft | 399 kts | 349° |
| 2026-04-22 14:03 | 46.08504 | 9.05484 | 36136 ft | 400 kts | 349° |
| 2026-04-22 14:03 | 46.14008 | 9.04598 | 36132 ft | 401 kts | 349° |
| 2026-04-22 14:04 | 46.19574 | 9.03741 | 35954 ft | 402 kts | 349° |
| 2026-04-22 14:04 | 46.22357 | 9.03369 | 35414 ft | 402 kts | 350° |
| 2026-04-22 14:04 | 46.25160 | 9.03010 | 34616 ft | 405 kts | 349° |
| 2026-04-22 14:05 | 46.27967 | 9.02653 | 33835 ft | 405 kts | 349° |
| 2026-04-22 14:05 | 46.30797 | 9.02288 | 32853 ft | 408 kts | 349° |
| 2026-04-22 14:05 | 46.36420 | 9.01544 | 31025 ft | 406 kts | 349° |
| 2026-04-22 14:06 | 46.39240 | 9.01166 | 30356 ft | 404 kts | 349° |
| 2026-04-22 14:06 | 46.42020 | 9.00794 | 29721 ft | 398 kts | 349° |
| 2026-04-22 14:06 | 46.44768 | 9.00427 | 29055 ft | 394 kts | 349° |
| 2026-04-22 14:06 | 46.47444 | 9.00067 | 28433 ft | 388 kts | 349° |
| 2026-04-22 14:07 | 46.50119 | 8.99707 | 27813 ft | 384 kts | 350° |
| 2026-04-22 14:07 | 46.52775 | 8.99349 | 27200 ft | 381 kts | 350° |
| 2026-04-22 14:07 | 46.55413 | 8.98996 | 26597 ft | 378 kts | 351° |
| 2026-04-22 14:07 | 46.58032 | 8.98645 | 25998 ft | 376 kts | 351° |
| 2026-04-22 14:08 | 46.60598 | 8.98300 | 25404 ft | 372 kts | 351° |
| 2026-04-22 14:08 | 46.63175 | 8.97951 | 24828 ft | 370 kts | 353° |
| 2026-04-22 14:08 | 46.65753 | 8.97598 | 24240 ft | 371 kts | 353° |
| 2026-04-22 14:08 | 46.68312 | 8.97247 | 23672 ft | 371 kts | 353° |
| 2026-04-22 14:09 | 46.70885 | 8.96894 | 23057 ft | 370 kts | 353° |
| 2026-04-22 14:09 | 46.73455 | 8.96545 | 22537 ft | 368 kts | 354° |
| 2026-04-22 14:09 | 46.75997 | 8.96203 | 22024 ft | 363 kts | 353° |
| 2026-04-22 14:09 | 46.78471 | 8.95871 | 21563 ft | 359 kts | 354° |
| 2026-04-22 14:10 | 46.80963 | 8.95534 | 21095 ft | 357 kts | 354° |
| 2026-04-22 14:10 | 46.83426 | 8.95199 | 20621 ft | 354 kts | 354° |
| 2026-04-22 14:10 | 46.85883 | 8.94864 | 20144 ft | 351 kts | 355° |
| 2026-04-22 14:10 | 46.88288 | 8.94533 | 19678 ft | 349 kts | 355° |
| 2026-04-22 14:11 | 46.90699 | 8.94202 | 19199 ft | 348 kts | 355° |
| 2026-04-22 14:11 | 46.93115 | 8.93872 | 18712 ft | 346 kts | 355° |
| 2026-04-22 14:11 | 46.95515 | 8.93542 | 18196 ft | 346 kts | 355° |
| 2026-04-22 14:11 | 46.97887 | 8.93213 | 17684 ft | 344 kts | 355° |
| 2026-04-22 14:12 | 47.00271 | 8.92883 | 17178 ft | 343 kts | 355° |
| 2026-04-22 14:12 | 47.02659 | 8.92555 | 16672 ft | 341 kts | 355° |
| 2026-04-22 14:12 | 47.04992 | 8.92236 | 16183 ft | 340 kts | 356° |
| 2026-04-22 14:12 | 47.07352 | 8.91910 | 15677 ft | 339 kts | 356° |
| 2026-04-22 14:13 | 47.09702 | 8.91585 | 15180 ft | 338 kts | 356° |
| 2026-04-22 14:13 | 47.12057 | 8.91260 | 14681 ft | 338 kts | 356° |
| 2026-04-22 14:13 | 47.14402 | 8.90935 | 14177 ft | 338 kts | 356° |
| 2026-04-22 14:13 | 47.16707 | 8.90615 | 13850 ft | 332 kts | 355° |
| 2026-04-22 14:14 | 47.18974 | 8.90296 | 13705 ft | 321 kts | 357° |
| 2026-04-22 14:14 | 47.21168 | 8.89989 | 13579 ft | 309 kts | 357° |
| 2026-04-22 14:14 | 47.23284 | 8.89695 | 13442 ft | 299 kts | 356° |
| 2026-04-22 14:14 | 47.25302 | 8.89417 | 13295 ft | 290 kts | 358° |
| 2026-04-22 14:15 | 47.27293 | 8.89588 | 12765 ft | 290 kts | 18° |
| 2026-04-22 14:15 | 47.29059 | 8.90982 | 12444 ft | 285 kts | 37° |
| 2026-04-22 14:15 | 47.30640 | 8.92742 | 12118 ft | 283 kts | 38° |
| 2026-04-22 14:15 | 47.32195 | 8.94522 | 11731 ft | 283 kts | 39° |
| 2026-04-22 14:16 | 47.33749 | 8.96303 | 11387 ft | 281 kts | 39° |
| 2026-04-22 14:16 | 47.35277 | 8.98051 | 10995 ft | 280 kts | 38° |
| 2026-04-22 14:16 | 47.36827 | 8.99832 | 10611 ft | 280 kts | 38° |
| 2026-04-22 14:16 | 47.38365 | 9.01584 | 10260 ft | 278 kts | 39° |
| 2026-04-22 14:17 | 47.39878 | 9.03306 | 9866 ft | 278 kts | 38° |
| 2026-04-22 14:17 | 47.41409 | 9.05052 | 9467 ft | 277 kts | 38° |
| 2026-04-22 14:17 | 47.42936 | 9.06784 | 9124 ft | 275 kts | 39° |
| 2026-04-22 14:17 | 47.44461 | 9.08514 | 8718 ft | 274 kts | 39° |
| 2026-04-22 14:18 | 47.45962 | 9.10201 | 8371 ft | 271 kts | 38° |
| 2026-04-22 14:18 | 47.47472 | 9.11867 | 8040 ft | 268 kts | 38° |
| 2026-04-22 14:18 | 47.48966 | 9.13510 | 7631 ft | 267 kts | 38° |
| 2026-04-22 14:18 | 47.50451 | 9.15160 | 7311 ft | 264 kts | 39° |
| 2026-04-22 14:19 | 47.51665 | 9.17018 | 7184 ft | 247 kts | 63° |
| 2026-04-22 14:19 | 47.52292 | 9.19333 | 7077 ft | 235 kts | 73° |
| 2026-04-22 14:19 | 47.52738 | 9.21608 | 6946 ft | 225 kts | 81° |
| 2026-04-22 14:19 | 47.52657 | 9.23860 | 6838 ft | 215 kts | 101° |
| 2026-04-22 14:20 | 47.52127 | 9.28207 | 6197 ft | 218 kts | 99° |
| 2026-04-22 14:20 | 47.51941 | 9.29675 | 5934 ft | 220 kts | 99° |
| 2026-04-22 14:20 | 47.51556 | 9.32660 | 5401 ft | 224 kts | 99° |
| 2026-04-22 14:21 | 47.50991 | 9.37012 | 4620 ft | 203 kts | 97° |
| 2026-04-22 14:21 | 47.50816 | 9.38355 | 4373 ft | 196 kts | 97° |
| 2026-04-22 14:22 | 47.50267 | 9.42580 | 3621 ft | 162 kts | 97° |
| 2026-04-22 14:22 | 47.50130 | 9.43629 | 3450 ft | 152 kts | 96° |
| 2026-04-22 14:22 | 47.49762 | 9.46460 | 2934 ft | 133 kts | 95° |
| 2026-04-22 14:23 | 47.49593 | 9.47763 | 2698 ft | 128 kts | 95° |
| 2026-04-22 14:23 | 47.49404 | 9.49049 | 2486 ft | 128 kts | 101° |
| 2026-04-22 14:23 | 47.49104 | 9.50295 | 2168 ft | 131 kts | 99° |
| 2026-04-22 14:23 | 47.48936 | 9.51605 | 1946 ft | 129 kts | 92° |
| 2026-04-22 14:24 | 47.48819 | 9.52907 | 1708 ft | 127 kts | 90° |
| 2026-04-22 14:24 | 47.48692 | 9.54232 | 1453 ft | 131 kts | 92° |
| 2026-04-22 14:24 | 47.48560 | 9.55518 | 1322 ft | 121 kts | 92° |
| 2026-04-22 14:24 | 47.48463 | 9.56493 | 1310 ft | 53 kts | 98° |
| 2026-04-22 14:25 | 47.48422 | 9.56903 | 1312 ft | 20 kts | 99° |
| 2026-04-22 14:25 | 47.48416 | 9.57032 | 1316 ft | 6 kts | 76° |
| 2026-04-22 14:25 | 47.48408 | 9.57036 | 1316 ft | 1 kts | 222° |
| 2026-04-22 14:25 | 47.48408 | 9.56997 | 1315 ft | 8 kts | 277° |
| 2026-04-22 14:26 | 47.48421 | 9.56869 | 1312 ft | 17 kts | 279° |
| 2026-04-22 14:26 | 47.48444 | 9.56669 | 1311 ft | 22 kts | 279° |
| 2026-04-22 14:26 | 47.48470 | 9.56443 | 1311 ft | 22 kts | 279° |
| 2026-04-22 14:26 | 47.48489 | 9.56220 | 1313 ft | 22 kts | 277° |
| 2026-04-22 14:27 | 47.48512 | 9.56001 | 1317 ft | 20 kts | 279° |
| 2026-04-22 14:27 | 47.48534 | 9.55805 | 1320 ft | 19 kts | 280° |
| 2026-04-22 14:27 | 47.48556 | 9.55591 | 1318 ft | 22 kts | 277° |
| 2026-04-22 14:27 | 47.48576 | 9.55366 | 1318 ft | 19 kts | 281° |
| 2026-04-22 14:28 | 47.48624 | 9.55330 | 1316 ft | 10 kts | 4° |
| 2026-04-22 14:28 | 47.48673 | 9.55251 | 1315 ft | 10 kts | 328° |
| 2026-04-22 14:28 | 47.48720 | 9.55254 | 1314 ft | 0 kts | 7° |
| 2026-04-22 15:01 | 47.48722 | 9.55254 | 1314 ft | 1 kts | 8° |
| 2026-04-22 15:01 | 47.48730 | 9.55285 | 1313 ft | 5 kts | 87° |
| 2026-04-22 15:01 | 47.48712 | 9.55344 | 1313 ft | 7 kts | 158° |
| 2026-04-22 15:02 | 47.48662 | 9.55338 | 1314 ft | 7 kts | 187° |
| 2026-04-22 15:02 | 47.48616 | 9.55329 | 1316 ft | 6 kts | 188° |
| 2026-04-22 15:02 | 47.48587 | 9.55300 | 1317 ft | 6 kts | 247° |
| 2026-04-22 15:02 | 47.48595 | 9.55218 | 1315 ft | 10 kts | 278° |
| 2026-04-22 15:03 | 47.48606 | 9.55098 | 1313 ft | 13 kts | 278° |
| 2026-04-22 15:03 | 47.48605 | 9.54984 | 1313 ft | 6 kts | 250° |
| 2026-04-22 15:03 | 47.48624 | 9.54963 | 1313 ft | 3 kts | 28° |
| 2026-04-22 15:03 | 47.48621 | 9.54986 | 1313 ft | 2 kts | 118° |
| 2026-04-22 15:04 | 47.48616 | 9.55011 | 1313 ft | 3 kts | 100° |
| 2026-04-22 15:04 | 47.48615 | 9.55015 | 1313 ft | 0 kts | 98° |